This is the latest recevied weather packets stored in our database for station/object OH6GPB-4. If no packets are shown the sender has not sent any weather packets the latest 10 day(s).
| Time | Temp. | Humidity | Pressure | Rain* | Wind** | Luminosity | Snow |
|---|---|---|---|---|---|---|---|
| 1777763843 | 6.11° C | 76% | 1004.3 hPa | 0.76 mm | - | 0 W/m² | - |
| 1777762049 | 6.11° C | 75% | 1004.3 hPa | 0.76 mm | - | 0 W/m² | - |
| 1777760246 | 6.67° C | 70% | 1004.3 hPa | 0.25 mm | - | 0 W/m² | - |
| 1777758458 | 7.22° C | 65% | 1003.9 hPa | 0 mm | - | 0 W/m² | - |
| 1777756647 | 8.89° C | 61% | 1003.3 hPa | 0 mm | - | 0 W/m² | - |
| 1777754856 | 8.89° C | 63% | 1003.3 hPa | 0 mm | - | 0 W/m² | - |
| 1777753058 | 9.44° C | 60% | 1003.2 hPa | 0 mm | - | 0 W/m² | - |
| 1777751244 | 9.44° C | 62% | 1003.1 hPa | 0 mm | - | 0 W/m² | - |
| 1777749449 | 10° C | 61% | 1002.8 hPa | 0 mm | - | 0 W/m² | - |
| 1777747644 | 10° C | 62% | 1002.8 hPa | 0 mm | - | 0 W/m² | - |
| 1777745854 | 10.56° C | 59% | 1002.6 hPa | 0 mm | - | 9 W/m² | - |
| 1777744054 | 11.11° C | 58% | 1002.4 hPa | 0 mm | - | 14 W/m² | - |
| 1777742246 | 11.67° C | 55% | 1002.6 hPa | 0 mm | - | 19 W/m² | - |
| 1777740461 | 12.22° C | 54% | 1002.7 hPa | 0 mm | - | 63 W/m² | - |
| 1777738656 | 12.22° C | 52% | 1002.7 hPa | 0 mm | - | 44 W/m² | - |
| 1777736848 | 12.78° C | 50% | 1002.8 hPa | 0 mm | - | 86 W/m² | - |
| 1777735043 | 13.33° C | 47% | 1002.9 hPa | 0 mm | - | 125 W/m² | - |
| 1777733242 | 13.89° C | 46% | 1002.9 hPa | 0 mm | - | 174 W/m² | - |
| 1777731457 | 13.89° C | 47% | 1003.2 hPa | 0 mm | - | 165 W/m² | - |
| 1777729657 | 14.44° C | 46% | 1003.2 hPa | 0 mm | - | 163 W/m² | - |
| 1777727853 | 13.89° C | 45% | 1003.3 hPa | 0 mm | - | 216 W/m² | - |
| 1777726050 | 13.89° C | 43% | 1003.3 hPa | 0 mm | - | 264 W/m² | - |
| 1777724244 | 14.44° C | 43% | 1003.3 hPa | 0 mm | - | 269 W/m² | - |
| 1777722452 | 14.44° C | 43% | 1003.5 hPa | 0 mm | - | 204 W/m² | - |
| 1777720643 | 15.56° C | 41% | 1003.3 hPa | 0 mm | - | 353 W/m² | - |
* Rain latest hour (hover to see other rain measurements)
** Current wind speed in m/s (hover to see current wind gust speed)